Time;durP1;ratioP1;P1;durP2;ratioP2;P2;SDS_P1;SDS_P2;PMS_P1;PMS_P2;Temp;Humidity;BMP_temperature;BMP_pressure;BME280_temperature;BME280_humidity;BME280_pressure;Samples;Min_cycle;Max_cycle;Signal;HPM_P1;HPM_P2
2023/07/09 00:02:00;;;;;;;7.47;3.00;;;;;;;;;;5047585;28;20044;-77
2023/07/09 00:04:28;;;;;;;3.72;2.17;;;;;;;;;;5060657;28;20510;-76
2023/07/09 00:06:55;;;;;;;2.58;1.73;;;;;;;;;;5042882;28;20484;-77
2023/07/09 00:09:21;;;;;;;3.63;2.25;;;;;;;;;;5061294;28;20163;-77
2023/07/09 00:11:48;;;;;;;3.92;2.30;;;;;;;;;;5057034;28;20029;-77
2023/07/09 00:14:15;;;;;;;3.60;2.05;;;;;;;;;;5057211;28;20515;-77
2023/07/09 00:16:41;;;;;;;3.17;2.33;;;;;;;;;;5046031;28;20064;-77
2023/07/09 00:19:16;;;;;;;4.15;2.10;;;;;;;;;;5046960;28;20032;-76
2023/07/09 00:21:42;;;;;;;3.40;2.15;;;;;;;;;;5049194;28;20296;-77
2023/07/09 00:24:10;;;;;;;2.78;2.10;;;;;;;;;;5051040;28;20028;-77
2023/07/09 00:26:38;;;;;;;3.30;2.00;;;;;;;;;;5060920;28;20044;-76
2023/07/09 00:29:03;;;;;;;3.05;2.25;;;;;;;;;;5046390;28;20382;-77
2023/07/09 00:31:29;;;;;;;2.88;2.00;;;;;;;;;;5062234;28;20064;-77
2023/07/09 00:33:55;;;;;;;2.95;2.20;;;;;;;;;;5049444;28;20079;-77
2023/07/09 00:36:29;;;;;;;3.15;2.00;;;;;;;;;;5050203;28;20028;-77
2023/07/09 00:39:04;;;;;;;2.38;2.10;;;;;;;;;;5046885;28;20773;-77
2023/07/09 00:41:33;;;;;;;3.92;2.58;;;;;;;;;;5047430;28;20060;-77
2023/07/09 00:44:13;;;;;;;2.78;2.08;;;;;;;;;;5045261;28;20123;-77
2023/07/09 00:46:39;;;;;;;3.15;2.10;;;;;;;;;;5042353;28;20381;-75
2023/07/09 00:49:08;;;;;;;2.80;1.98;;;;;;;;;;5042029;28;20043;-77
2023/07/09 00:51:37;;;;;;;4.88;2.55;;;;;;;;;;5041357;28;20126;-77
2023/07/09 00:54:08;;;;;;;2.05;1.70;;;;;;;;;;5036052;28;20479;-77
2023/07/09 00:56:40;;;;;;;2.55;2.10;;;;;;;;;;5034354;28;20549;-77
2023/07/09 00:59:08;;;;;;;3.20;1.88;;;;;;;;;;5037476;28;20034;-77
2023/07/09 01:01:34;;;;;;;4.32;2.20;;;;;;;;;;5038166;28;20024;-77
2023/07/09 01:04:01;;;;;;;3.42;1.95;;;;;;;;;;5040805;28;20505;-77
2023/07/09 01:06:32;;;;;;;2.75;1.85;;;;;;;;;;5034564;28;20388;-77
2023/07/09 01:08:58;;;;;;;3.28;1.95;;;;;;;;;;5035778;28;20033;-77
2023/07/09 01:11:24;;;;;;;2.28;1.98;;;;;;;;;;5050795;28;20039;-77
2023/07/09 01:13:55;;;;;;;3.80;2.17;;;;;;;;;;5040180;28;20037;-77
2023/07/09 01:16:23;;;;;;;2.83;1.98;;;;;;;;;;5053717;28;20036;-77
2023/07/09 01:18:50;;;;;;;3.50;1.98;;;;;;;;;;5036905;28;20029;-77
2023/07/09 01:21:16;;;;;;;2.80;1.77;;;;;;;;;;5049143;28;20053;-77
2023/07/09 01:23:45;;;;;;;2.30;1.77;;;;;;;;;;5050361;28;20021;-76
2023/07/09 01:26:12;;;;;;;3.33;2.03;;;;;;;;;;5038043;28;20028;-77
2023/07/09 01:28:41;;;;;;;3.15;1.90;;;;;;;;;;5050621;28;20017;-77
2023/07/09 01:31:07;;;;;;;2.30;1.67;;;;;;;;;;5039821;28;20051;-77
2023/07/09 01:33:33;;;;;;;3.85;1.95;;;;;;;;;;5042646;28;20476;-76
2023/07/09 01:36:00;;;;;;;3.22;2.22;;;;;;;;;;5045703;28;20025;-77
2023/07/09 01:38:30;;;;;;;2.65;1.80;;;;;;;;;;5042047;28;20037;-77
2023/07/09 01:40:56;;;;;;;6.55;1.95;;;;;;;;;;5049196;28;20462;-77
2023/07/09 01:43:22;;;;;;;2.22;1.67;;;;;;;;;;5035686;28;20021;-77
2023/07/09 01:45:50;;;;;;;2.60;1.75;;;;;;;;;;5048400;28;20036;-77
2023/07/09 01:48:16;;;;;;;2.67;2.10;;;;;;;;;;5041019;28;20033;-77
2023/07/09 01:50:43;;;;;;;2.75;1.85;;;;;;;;;;5050091;28;20056;-77
2023/07/09 01:53:10;;;;;;;2.40;1.55;;;;;;;;;;5047718;28;20028;-77
2023/07/09 01:55:36;;;;;;;2.03;1.50;;;;;;;;;;5042091;28;20116;-77
2023/07/09 01:58:06;;;;;;;3.60;1.75;;;;;;;;;;5048857;28;20148;-77
2023/07/09 02:00:34;;;;;;;2.97;2.00;;;;;;;;;;5049409;28;20040;-77
2023/07/09 02:03:01;;;;;;;2.70;1.70;;;;;;;;;;5050010;28;20090;-77
2023/07/09 02:05:28;;;;;;;2.17;1.77;;;;;;;;;;5048783;28;20488;-77
2023/07/09 02:07:54;;;;;;;2.92;2.13;;;;;;;;;;5049178;28;20028;-77
2023/07/09 02:10:20;;;;;;;3.20;1.50;;;;;;;;;;5048734;28;20527;-77
2023/07/09 02:12:47;;;;;;;2.03;1.38;;;;;;;;;;5049966;28;20057;-77
2023/07/09 02:15:14;;;;;;;3.35;1.70;;;;;;;;;;5047238;28;20033;-77
2023/07/09 02:17:40;;;;;;;3.55;2.03;;;;;;;;;;5044225;28;20467;-77
2023/07/09 02:20:06;;;;;;;1.65;1.55;;;;;;;;;;5047835;28;20500;-77
2023/07/09 02:22:33;;;;;;;2.13;1.80;;;;;;;;;;5045212;28;20055;-77
2023/07/09 02:24:59;;;;;;;2.00;1.70;;;;;;;;;;5038977;28;20029;-77
2023/07/09 02:27:25;;;;;;;3.03;2.10;;;;;;;;;;5048748;28;20036;-77
2023/07/09 02:29:51;;;;;;;2.75;1.80;;;;;;;;;;5047757;28;20068;-77
2023/07/09 02:32:19;;;;;;;2.33;1.60;;;;;;;;;;5045391;28;20049;-76
2023/07/09 02:34:48;;;;;;;2.40;1.65;;;;;;;;;;5048418;28;20125;-77
2023/07/09 02:37:15;;;;;;;3.05;1.80;;;;;;;;;;5046861;28;20029;-77
2023/07/09 02:39:41;;;;;;;3.13;1.90;;;;;;;;;;5040965;28;20029;-77
2023/07/09 02:42:09;;;;;;;2.17;1.70;;;;;;;;;;5048925;28;20116;-76
2023/07/09 02:44:35;;;;;;;2.55;1.60;;;;;;;;;;5048003;28;20036;-77
2023/07/09 02:47:01;;;;;;;1.92;1.42;;;;;;;;;;5045819;28;20048;-77
2023/07/09 02:49:27;;;;;;;2.15;1.63;;;;;;;;;;5042852;28;20523;-77
2023/07/09 02:51:53;;;;;;;1.77;1.65;;;;;;;;;;5056122;28;20290;-77
2023/07/09 02:54:19;;;;;;;2.55;1.98;;;;;;;;;;5048261;28;20039;-77
2023/07/09 02:56:46;;;;;;;2.55;1.52;;;;;;;;;;5045947;28;20100;-77
2023/07/09 02:59:12;;;;;;;2.13;1.73;;;;;;;;;;5034570;28;20041;-76
2023/07/09 03:01:38;;;;;;;2.10;1.63;;;;;;;;;;5047947;28;20036;-76
2023/07/09 03:04:04;;;;;;;2.08;1.70;;;;;;;;;;5036784;28;20060;-76
2023/07/09 03:06:32;;;;;;;2.45;1.92;;;;;;;;;;5048385;28;20441;-76
2023/07/09 03:08:58;;;;;;;1.60;1.40;;;;;;;;;;5053564;28;20112;-76
2023/07/09 03:11:24;;;;;;;2.25;1.77;;;;;;;;;;5050274;28;20032;-76
2023/07/09 03:13:50;;;;;;;1.52;1.30;;;;;;;;;;5046114;28;20103;-77
2023/07/09 03:16:18;;;;;;;2.13;1.38;;;;;;;;;;5053940;28;20028;-76
2023/07/09 03:18:44;;;;;;;2.60;1.48;;;;;;;;;;5038468;28;20013;-76
2023/07/09 03:21:10;;;;;;;1.38;1.27;;;;;;;;;;5049108;28;20041;-77
2023/07/09 03:23:36;;;;;;;2.00;1.60;;;;;;;;;;5051997;28;20049;-77
2023/07/09 03:26:02;;;;;;;2.47;1.58;;;;;;;;;;5054892;28;20024;-77
2023/07/09 03:28:30;;;;;;;1.60;1.40;;;;;;;;;;5051844;28;20491;-77
2023/07/09 03:30:56;;;;;;;4.88;1.90;;;;;;;;;;5048714;28;20070;-76
2023/07/09 03:33:23;;;;;;;1.27;1.15;;;;;;;;;;5050319;28;20029;-76
2023/07/09 03:35:49;;;;;;;1.73;1.48;;;;;;;;;;5052661;28;20025;-77
2023/07/09 03:38:15;;;;;;;2.15;1.52;;;;;;;;;;5048487;28;20059;-77
2023/07/09 03:40:41;;;;;;;1.90;1.55;;;;;;;;;;5051644;28;20045;-76
2023/07/09 03:43:08;;;;;;;3.47;1.60;;;;;;;;;;5052001;28;20036;-77
2023/07/09 03:45:35;;;;;;;2.60;1.48;;;;;;;;;;5051194;28;20387;-77
2023/07/09 03:48:02;;;;;;;1.40;1.30;;;;;;;;;;5049252;28;20108;-77
2023/07/09 03:50:28;;;;;;;2.25;1.58;;;;;;;;;;5041582;28;20021;-77
2023/07/09 03:52:54;;;;;;;1.83;1.52;;;;;;;;;;5049395;28;20029;-78
2023/07/09 03:55:20;;;;;;;1.95;1.45;;;;;;;;;;5053198;28;20566;-77
2023/07/09 03:57:46;;;;;;;3.53;1.65;;;;;;;;;;5051052;28;20434;-77
2023/07/09 04:00:13;;;;;;;1.92;1.63;;;;;;;;;;5051619;28;20094;-77
2023/07/09 04:02:39;;;;;;;3.95;1.27;;;;;;;;;;5049626;28;20497;-77
2023/07/09 04:05:06;;;;;;;3.25;1.60;;;;;;;;;;5051006;28;20036;-77
2023/07/09 04:07:32;;;;;;;2.60;1.35;;;;;;;;;;5047357;28;20036;-77
2023/07/09 04:09:58;;;;;;;2.80;1.50;;;;;;;;;;5049297;28;20468;-77
2023/07/09 04:12:24;;;;;;;2.40;1.65;;;;;;;;;;5055044;28;20078;-77
2023/07/09 04:14:50;;;;;;;2.03;1.48;;;;;;;;;;5066148;28;20488;-77
2023/07/09 04:17:16;;;;;;;3.25;1.40;;;;;;;;;;5044578;28;20037;-77
2023/07/09 04:19:42;;;;;;;1.35;1.23;;;;;;;;;;5056964;28;20041;-78
2023/07/09 04:22:08;;;;;;;2.03;1.73;;;;;;;;;;5050264;28;20048;-77
2023/07/09 04:24:34;;;;;;;1.65;1.40;;;;;;;;;;5044976;28;20108;-77
2023/07/09 04:27:02;;;;;;;2.28;1.67;;;;;;;;;;5044008;28;20026;-76
2023/07/09 04:29:28;;;;;;;1.95;1.65;;;;;;;;;;5035302;28;20026;-77
2023/07/09 04:31:54;;;;;;;1.73;1.30;;;;;;;;;;5046550;28;20536;-77
2023/07/09 04:34:20;;;;;;;1.90;1.52;;;;;;;;;;5055351;28;20021;-77
2023/07/09 04:36:46;;;;;;;1.42;1.33;;;;;;;;;;5051972;28;20491;-77
2023/07/09 04:39:12;;;;;;;1.77;1.45;;;;;;;;;;5050452;28;20090;-77
2023/07/09 04:41:38;;;;;;;1.73;1.40;;;;;;;;;;5049324;28;20029;-77
2023/07/09 04:44:04;;;;;;;1.52;1.35;;;;;;;;;;5050138;28;20021;-77
2023/07/09 04:46:30;;;;;;;2.60;1.90;;;;;;;;;;5049206;28;20111;-77
2023/07/09 04:48:56;;;;;;;2.13;1.50;;;;;;;;;;5051946;28;20020;-77
2023/07/09 04:51:22;;;;;;;2.45;1.38;;;;;;;;;;5042819;28;20021;-77
2023/07/09 04:53:51;;;;;;;2.20;1.52;;;;;;;;;;5050658;28;20025;-77
2023/07/09 04:56:17;;;;;;;2.17;1.55;;;;;;;;;;5065920;28;20487;-77
2023/07/09 04:58:43;;;;;;;2.40;1.65;;;;;;;;;;5053002;28;20025;-77
2023/07/09 05:01:09;;;;;;;2.33;1.60;;;;;;;;;;5047194;28;20036;-77
2023/07/09 05:03:36;;;;;;;2.85;1.67;;;;;;;;;;5048880;28;20628;-77
2023/07/09 05:06:02;;;;;;;1.60;1.50;;;;;;;;;;5030932;28;20017;-77
2023/07/09 05:08:28;;;;;;;2.10;1.55;;;;;;;;;;5041471;28;20361;-77
2023/07/09 05:10:55;;;;;;;3.47;1.52;;;;;;;;;;5045664;28;20029;-77
2023/07/09 05:13:21;;;;;;;2.40;1.98;;;;;;;;;;5054168;28;20108;-77
2023/07/09 05:15:47;;;;;;;1.45;1.35;;;;;;;;;;5049274;28;20051;-77
2023/07/09 05:18:13;;;;;;;3.08;1.45;;;;;;;;;;5056638;28;20120;-77
2023/07/09 05:20:40;;;;;;;1.67;1.38;;;;;;;;;;5048641;28;20127;-77
2023/07/09 05:23:06;;;;;;;2.05;1.38;;;;;;;;;;5050188;28;20031;-77
2023/07/09 05:25:32;;;;;;;2.45;1.50;;;;;;;;;;5044622;28;20043;-77
2023/07/09 05:27:58;;;;;;;2.50;1.38;;;;;;;;;;5048548;28;20586;-77
2023/07/09 05:30:24;;;;;;;2.78;1.30;;;;;;;;;;5042834;28;20025;-76
2023/07/09 05:32:50;;;;;;;1.23;1.10;;;;;;;;;;5049880;28;20403;-77
2023/07/09 05:35:16;;;;;;;1.58;1.48;;;;;;;;;;5048898;28;20025;-77
2023/07/09 05:37:42;;;;;;;1.83;1.55;;;;;;;;;;5048035;28;20071;-77
2023/07/09 05:40:10;;;;;;;2.03;1.50;;;;;;;;;;5064631;28;20036;-77
2023/07/09 05:42:36;;;;;;;1.70;1.33;;;;;;;;;;5050739;28;20079;-77
2023/07/09 05:45:02;;;;;;;1.63;1.33;;;;;;;;;;5048637;28;20037;-77
2023/07/09 05:47:28;;;;;;;1.85;1.60;;;;;;;;;;5057028;28;20031;-77
2023/07/09 05:49:53;;;;;;;1.73;1.45;;;;;;;;;;5052794;28;20025;-77
2023/07/09 05:52:21;;;;;;;1.48;1.38;;;;;;;;;;5052602;28;20428;-77
2023/07/09 05:54:49;;;;;;;2.28;1.33;;;;;;;;;;5054449;28;20124;-76
2023/07/09 05:57:15;;;;;;;1.60;1.50;;;;;;;;;;5049013;28;20056;-76
2023/07/09 05:59:41;;;;;;;1.50;1.25;;;;;;;;;;5056583;28;20021;-76
2023/07/09 06:02:13;;;;;;;1.25;1.08;;;;;;;;;;5046505;28;20503;-75
2023/07/09 06:04:39;;;;;;;2.05;1.38;;;;;;;;;;5048463;28;20025;-76
2023/07/09 06:07:05;;;;;;;1.70;1.45;;;;;;;;;;5053296;28;20025;-76
2023/07/09 06:09:31;;;;;;;1.92;1.35;;;;;;;;;;5046720;28;20029;-76
2023/07/09 06:11:57;;;;;;;1.60;1.50;;;;;;;;;;5050102;28;20028;-77
2023/07/09 06:14:23;;;;;;;2.22;1.40;;;;;;;;;;5047280;28;20048;-77
2023/07/09 06:16:49;;;;;;;2.13;1.20;;;;;;;;;;5049605;28;20033;-76
2023/07/09 06:19:15;;;;;;;1.42;1.25;;;;;;;;;;5061628;28;20032;-76
2023/07/09 06:21:41;;;;;;;2.13;1.80;;;;;;;;;;5049232;28;20037;-77
2023/07/09 06:24:08;;;;;;;1.77;1.40;;;;;;;;;;5048756;28;20609;-77
2023/07/09 06:26:33;;;;;;;3.40;1.50;;;;;;;;;;5048515;28;20085;-76
2023/07/09 06:28:59;;;;;;;1.40;1.30;;;;;;;;;;5048029;28;20368;-76
2023/07/09 06:31:25;;;;;;;1.75;1.42;;;;;;;;;;5049500;28;20029;-77
2023/07/09 06:33:51;;;;;;;2.03;1.67;;;;;;;;;;5052642;28;20108;-77
2023/07/09 06:36:18;;;;;;;1.48;1.30;;;;;;;;;;5050407;28;20025;-77
2023/07/09 06:38:44;;;;;;;1.10;1.00;;;;;;;;;;5041914;28;20540;-77
2023/07/09 06:41:10;;;;;;;1.25;1.13;;;;;;;;;;5047668;28;20491;-77
2023/07/09 06:43:38;;;;;;;1.73;1.40;;;;;;;;;;5050443;28;20062;-77
2023/07/09 06:46:05;;;;;;;1.73;1.30;;;;;;;;;;5048742;28;20029;-77
2023/07/09 06:48:31;;;;;;;5.65;1.48;;;;;;;;;;5067877;28;20027;-77
2023/07/09 06:50:58;;;;;;;1.98;1.40;;;;;;;;;;5048639;28;20044;-80
2023/07/09 06:53:25;;;;;;;1.38;1.27;;;;;;;;;;5053828;28;20062;-78
2023/07/09 06:55:52;;;;;;;2.33;1.30;;;;;;;;;;5049261;28;20024;-78
2023/07/09 06:58:18;;;;;;;1.60;1.50;;;;;;;;;;5051617;28;20039;-78
2023/07/09 07:00:45;;;;;;;1.80;1.52;;;;;;;;;;5045793;28;20032;-77
2023/07/09 07:03:11;;;;;;;1.95;1.40;;;;;;;;;;5050222;28;20116;-78
2023/07/09 07:05:37;;;;;;;1.35;1.20;;;;;;;;;;5049082;28;20025;-76
2023/07/09 07:08:04;;;;;;;3.80;1.38;;;;;;;;;;5060792;28;20368;-77
2023/07/09 07:10:30;;;;;;;1.27;1.10;;;;;;;;;;5047369;28;20044;-77
2023/07/09 07:12:56;;;;;;;1.40;1.30;;;;;;;;;;5054604;28;20029;-77
2023/07/09 07:15:23;;;;;;;2.60;1.60;;;;;;;;;;5043553;28;20029;-77
2023/07/09 07:17:49;;;;;;;1.30;1.20;;;;;;;;;;5031286;28;20388;-77
2023/07/09 07:20:16;;;;;;;1.80;1.50;;;;;;;;;;5050466;28;20052;-77
2023/07/09 07:22:42;;;;;;;1.90;1.20;;;;;;;;;;5049456;28;20029;-77
2023/07/09 07:25:08;;;;;;;2.08;1.33;;;;;;;;;;5052156;28;20099;-77
2023/07/09 07:27:35;;;;;;;1.75;1.42;;;;;;;;;;5047258;28;20020;-76
2023/07/09 07:30:01;;;;;;;2.17;1.40;;;;;;;;;;5048768;28;20025;-76
2023/07/09 07:32:27;;;;;;;2.10;1.50;;;;;;;;;;5064530;28;20380;-77
2023/07/09 07:34:54;;;;;;;2.42;1.70;;;;;;;;;;5047310;28;20024;-77
2023/07/09 07:37:20;;;;;;;4.05;1.95;;;;;;;;;;5048695;28;20029;-78
2023/07/09 07:39:47;;;;;;;2.28;1.73;;;;;;;;;;5048817;28;20547;-77
2023/07/09 07:42:12;;;;;;;3.45;1.77;;;;;;;;;;5047647;28;20043;-76
2023/07/09 07:44:38;;;;;;;3.08;1.98;;;;;;;;;;5040898;28;20435;-77
2023/07/09 07:47:05;;;;;;;3.00;1.73;;;;;;;;;;5046530;28;20042;-76
2023/07/09 07:49:31;;;;;;;2.45;2.05;;;;;;;;;;5041686;28;20112;-76
2023/07/09 07:51:57;;;;;;;2.50;1.67;;;;;;;;;;5047237;28;20104;-76
2023/07/09 07:54:23;;;;;;;2.88;2.05;;;;;;;;;;5045705;28;20365;-77
2023/07/09 07:56:49;;;;;;;3.58;2.50;;;;;;;;;;5056907;28;20032;-76
2023/07/09 07:59:15;;;;;;;2.53;1.88;;;;;;;;;;5048482;28;20400;-77
2023/07/09 08:01:41;;;;;;;2.15;1.50;;;;;;;;;;5051037;28;20484;-77
2023/07/09 08:04:07;;;;;;;3.15;2.10;;;;;;;;;;5044164;28;20055;-77
2023/07/09 08:06:33;;;;;;;3.10;1.80;;;;;;;;;;5050610;28;20020;-78
2023/07/09 08:08:59;;;;;;;2.88;1.83;;;;;;;;;;5045424;28;20022;-78
2023/07/09 08:11:25;;;;;;;5.40;1.90;;;;;;;;;;5047312;28;20175;-78
2023/07/09 08:13:51;;;;;;;3.67;1.80;;;;;;;;;;5050319;28;20549;-76
2023/07/09 08:16:17;;;;;;;2.03;1.75;;;;;;;;;;5048959;28;20029;-75
2023/07/09 08:18:43;;;;;;;3.50;1.98;;;;;;;;;;5050686;28;20078;-75
2023/07/09 08:21:09;;;;;;;2.28;1.92;;;;;;;;;;5045245;28;20050;-76
2023/07/09 08:23:36;;;;;;;2.80;2.15;;;;;;;;;;5058102;28;20032;-79
2023/07/09 08:26:05;;;;;;;2.88;1.80;;;;;;;;;;5049462;28;20033;-77
2023/07/09 08:28:32;;;;;;;3.08;2.08;;;;;;;;;;5048720;28;20048;-78
2023/07/09 08:30:58;;;;;;;3.20;1.90;;;;;;;;;;5038162;28;20060;-77
2023/07/09 08:33:25;;;;;;;4.07;2.05;;;;;;;;;;5052505;28;20950;-78
2023/07/09 08:35:51;;;;;;;2.70;2.00;;;;;;;;;;5038553;28;20029;-78
2023/07/09 08:38:18;;;;;;;2.17;1.60;;;;;;;;;;5046697;28;20079;-79
2023/07/09 08:40:55;;;;;;;3.38;2.25;;;;;;;;;;5059835;28;20086;-78
2023/07/09 08:43:44;;;;;;;3.33;2.00;;;;;;;;;;5060186;28;20643;-78
2023/07/09 08:46:17;;;;;;;3.67;2.00;;;;;;;;;;5044208;28;20084;-78
2023/07/09 08:48:45;;;;;;;2.88;1.90;;;;;;;;;;5051254;28;20033;-78
2023/07/09 08:51:22;;;;;;;4.13;1.98;;;;;;;;;;5055472;28;20024;-78
2023/07/09 08:53:50;;;;;;;3.40;2.22;;;;;;;;;;5048976;28;20429;-78
2023/07/09 08:56:16;;;;;;;3.00;2.10;;;;;;;;;;5040633;28;20038;-77
2023/07/09 08:58:44;;;;;;;7.55;1.88;;;;;;;;;;5048155;28;20496;-78
2023/07/09 09:01:17;;;;;;;2.63;1.83;;;;;;;;;;5042149;28;20033;-78
2023/07/09 09:03:47;;;;;;;3.10;1.60;;;;;;;;;;5051806;28;20098;-77
2023/07/09 09:06:17;;;;;;;2.65;1.73;;;;;;;;;;5048837;28;20047;-78
2023/07/09 09:08:51;;;;;;;2.30;1.88;;;;;;;;;;5050052;28;20028;-78
2023/07/09 09:11:31;;;;;;;2.47;1.67;;;;;;;;;;5050570;28;20502;-80
2023/07/09 09:14:01;;;;;;;2.00;1.80;;;;;;;;;;5053853;28;20024;-77
2023/07/09 09:16:38;;;;;;;2.00;1.67;;;;;;;;;;5052231;28;20498;-76
2023/07/09 09:19:09;;;;;;;2.10;1.75;;;;;;;;;;5042638;28;20289;-75
2023/07/09 09:21:36;;;;;;;9.38;2.03;;;;;;;;;;5043900;28;20047;-75
2023/07/09 09:24:12;;;;;;;2.00;1.77;;;;;;;;;;5042101;28;20021;-75
2023/07/09 09:26:41;;;;;;;2.25;1.90;;;;;;;;;;5051983;28;20024;-74
2023/07/09 09:29:14;;;;;;;3.80;1.90;;;;;;;;;;5048586;28;20021;-75
2023/07/09 09:31:49;;;;;;;3.88;1.90;;;;;;;;;;5046066;28;20033;-74
2023/07/09 09:34:20;;;;;;;3.50;2.25;;;;;;;;;;5053782;28;20045;-75
2023/07/09 09:36:47;;;;;;;2.55;1.75;;;;;;;;;;5060984;28;20071;-75
2023/07/09 09:39:13;;;;;;;2.88;1.90;;;;;;;;;;5060079;28;20033;-75
2023/07/09 09:41:40;;;;;;;2.47;1.80;;;;;;;;;;5044840;28;20409;-75
2023/07/09 09:44:06;;;;;;;2.85;1.90;;;;;;;;;;5047312;28;20416;-74
2023/07/09 09:46:33;;;;;;;2.83;1.80;;;;;;;;;;5048345;28;20025;-74
2023/07/09 09:49:03;;;;;;;2.42;1.70;;;;;;;;;;5043484;28;20029;-74
2023/07/09 09:51:29;;;;;;;4.65;1.80;;;;;;;;;;5041923;28;20024;-75
2023/07/09 09:53:59;;;;;;;2.70;2.10;;;;;;;;;;5045905;28;20122;-75
2023/07/09 09:56:30;;;;;;;4.18;2.28;;;;;;;;;;5047311;28;20028;-75
2023/07/09 09:58:57;;;;;;;2.20;1.50;;;;;;;;;;5047268;28;20079;-75
2023/07/09 10:01:27;;;;;;;4.05;2.03;;;;;;;;;;5046486;28;20090;-74
2023/07/09 10:03:56;;;;;;;2.72;1.88;;;;;;;;;;5042434;28;20028;-77
2023/07/09 10:06:42;;;;;;;3.22;2.00;;;;;;;;;;5040656;28;20029;-74
2023/07/09 10:09:17;;;;;;;3.75;2.50;;;;;;;;;;5049401;28;20048;-74
2023/07/09 10:11:43;;;;;;;3.47;2.22;;;;;;;;;;5047208;28;20031;-74
2023/07/09 10:14:17;;;;;;;2.05;1.80;;;;;;;;;;5038667;28;20036;-77
2023/07/09 10:16:46;;;;;;;2.55;2.20;;;;;;;;;;5037998;28;20074;-78
2023/07/09 10:19:16;;;;;;;3.60;2.50;;;;;;;;;;5042644;28;20036;-77
2023/07/09 10:21:46;;;;;;;2.33;2.00;;;;;;;;;;5044245;28;20091;-78
2023/07/09 10:24:20;;;;;;;2.78;2.00;;;;;;;;;;5046905;28;20025;-77
2023/07/09 10:26:54;;;;;;;3.72;2.20;;;;;;;;;;5038270;28;20132;-74
2023/07/09 10:29:42;;;;;;;5.05;1.98;;;;;;;;;;5042594;28;20120;-76
2023/07/09 10:32:17;;;;;;;2.30;1.92;;;;;;;;;;5048818;28;20021;-75
2023/07/09 10:35:02;;;;;;;3.88;2.17;;;;;;;;;;5043807;28;20115;-75
2023/07/09 10:37:44;;;;;;;4.78;2.03;;;;;;;;;;5047980;28;20035;-76
2023/07/09 10:40:12;;;;;;;3.72;2.35;;;;;;;;;;5048164;28;20025;-75
2023/07/09 10:42:56;;;;;;;1.95;1.73;;;;;;;;;;5044783;28;20035;-77
2023/07/09 10:45:29;;;;;;;3.15;2.13;;;;;;;;;;5046483;28;20433;-76
2023/07/09 10:48:11;;;;;;;2.88;2.05;;;;;;;;;;5044814;28;20039;-76
2023/07/09 10:50:38;;;;;;;1.98;1.33;;;;;;;;;;5046616;28;20357;-76
2023/07/09 10:53:23;;;;;;;2.05;1.65;;;;;;;;;;5047329;28;20021;-77
2023/07/09 10:55:53;;;;;;;2.08;1.65;;;;;;;;;;5046360;28;20033;-78
2023/07/09 10:58:22;;;;;;;3.15;2.30;;;;;;;;;;5044801;28;20140;-78
2023/07/09 11:00:48;;;;;;;5.10;2.13;;;;;;;;;;5043861;28;20040;-78
2023/07/09 11:03:30;;;;;;;2.40;1.92;;;;;;;;;;5044405;28;20032;-78
2023/07/09 11:05:56;;;;;;;2.42;1.95;;;;;;;;;;5044937;28;20036;-77
2023/07/09 11:08:26;;;;;;;2.42;1.95;;;;;;;;;;5042219;28;20025;-79
2023/07/09 11:10:57;;;;;;;3.38;2.25;;;;;;;;;;5046971;28;20033;-81
2023/07/09 11:13:31;;;;;;;3.63;2.38;;;;;;;;;;5047809;28;20041;-81
2023/07/09 11:15:57;;;;;;;2.17;1.88;;;;;;;;;;5047033;28;20044;-81
2023/07/09 11:18:24;;;;;;;3.40;2.28;;;;;;;;;;5046473;28;20723;-81
2023/07/09 11:20:59;;;;;;;2.50;2.03;;;;;;;;;;5045196;28;20067;-80
2023/07/09 11:23:25;;;;;;;3.60;2.10;;;;;;;;;;5044155;28;20496;-77
2023/07/09 11:26:12;;;;;;;3.15;1.98;;;;;;;;;;5048449;28;20438;-77
2023/07/09 11:28:39;;;;;;;3.53;2.20;;;;;;;;;;5042070;28;20029;-78
2023/07/09 11:31:06;;;;;;;3.40;2.10;;;;;;;;;;5047499;28;20155;-80
2023/07/09 11:33:33;;;;;;;2.33;2.10;;;;;;;;;;5045626;28;20648;-79
2023/07/09 11:36:09;;;;;;;2.67;2.00;;;;;;;;;;5047623;28;20449;-79
2023/07/09 11:38:48;;;;;;;4.50;2.20;;;;;;;;;;5046013;28;20031;-78
2023/07/09 11:41:32;;;;;;;3.47;2.13;;;;;;;;;;5049470;28;20112;-80
2023/07/09 11:44:03;;;;;;;2.00;1.80;;;;;;;;;;5047307;28;20041;-77
2023/07/09 11:46:29;;;;;;;3.45;2.38;;;;;;;;;;5051353;28;20029;-80
2023/07/09 11:48:57;;;;;;;3.50;2.30;;;;;;;;;;5047788;28;20089;-79
2023/07/09 11:51:50;;;;;;;3.10;2.20;;;;;;;;;;5050942;28;20036;-79
2023/07/09 11:54:16;;;;;;;2.50;1.88;;;;;;;;;;5051722;28;20526;-79
2023/07/09 11:56:42;;;;;;;5.18;2.10;;;;;;;;;;5055330;28;20035;-78
2023/07/09 11:59:11;;;;;;;3.28;1.90;;;;;;;;;;5047261;28;20029;-79
2023/07/09 12:01:44;;;;;;;3.25;2.58;;;;;;;;;;5048934;28;20515;-76
2023/07/09 12:04:17;;;;;;;2.70;1.77;;;;;;;;;;5054424;28;20029;-76
2023/07/09 12:06:43;;;;;;;5.60;2.17;;;;;;;;;;5051231;28;20021;-78
2023/07/09 12:09:15;;;;;;;3.33;2.65;;;;;;;;;;5049586;28;20116;-80
2023/07/09 12:11:43;;;;;;;3.20;2.42;;;;;;;;;;5049909;28;20025;-77
2023/07/09 12:14:14;;;;;;;3.13;2.22;;;;;;;;;;5047685;28;20017;-79
2023/07/09 12:16:47;;;;;;;2.55;2.35;;;;;;;;;;5050560;28;20025;-78
2023/07/09 12:19:14;;;;;;;3.20;2.58;;;;;;;;;;5050837;28;20384;-79
2023/07/09 12:21:44;;;;;;;2.25;2.03;;;;;;;;;;5045581;28;20045;-78
2023/07/09 12:24:23;;;;;;;3.63;2.40;;;;;;;;;;5049845;28;20455;-78
2023/07/09 12:26:59;;;;;;;4.35;2.85;;;;;;;;;;5050025;28;20028;-78
2023/07/09 12:29:26;;;;;;;3.30;2.40;;;;;;;;;;5051186;28;20025;-77
2023/07/09 12:31:52;;;;;;;2.72;2.45;;;;;;;;;;5047283;28;20383;-78
2023/07/09 12:34:18;;;;;;;5.78;2.38;;;;;;;;;;5049911;28;20024;-78
2023/07/09 12:36:46;;;;;;;3.42;2.25;;;;;;;;;;5050670;28;20056;-79
2023/07/09 12:39:12;;;;;;;3.67;2.58;;;;;;;;;;5049940;28;20044;-78
2023/07/09 12:41:40;;;;;;;2.72;2.10;;;;;;;;;;5046774;28;20024;-77
2023/07/09 12:44:06;;;;;;;2.90;2.13;;;;;;;;;;5047894;28;20559;-76
2023/07/09 12:46:32;;;;;;;3.85;2.40;;;;;;;;;;5051636;28;20111;-79
2023/07/09 12:48:59;;;;;;;3.03;2.00;;;;;;;;;;5051127;28;20124;-79
2023/07/09 12:51:27;;;;;;;4.07;2.53;;;;;;;;;;5050034;28;20032;-80
2023/07/09 12:54:13;;;;;;;3.13;1.80;;;;;;;;;;5046423;28;20476;-81
2023/07/09 12:56:39;;;;;;;3.10;2.22;;;;;;;;;;5050073;28;20111;-81
2023/07/09 12:59:15;;;;;;;2.40;2.20;;;;;;;;;;5048107;28;20056;-78
2023/07/09 13:01:44;;;;;;;3.47;2.15;;;;;;;;;;5051458;28;20040;-80
2023/07/09 13:04:12;;;;;;;3.00;2.50;;;;;;;;;;5046205;28;20024;-79
2023/07/09 13:06:39;;;;;;;4.07;2.67;;;;;;;;;;5049223;28;20108;-81
2023/07/09 13:09:12;;;;;;;2.97;2.50;;;;;;;;;;5049299;28;20430;-81
2023/07/09 13:11:40;;;;;;;2.47;2.20;;;;;;;;;;5043877;28;20032;-81
2023/07/09 13:14:16;;;;;;;2.22;1.83;;;;;;;;;;5046711;28;20021;-81
2023/07/09 13:16:42;;;;;;;3.08;2.28;;;;;;;;;;5047867;28;20029;-81
2023/07/09 13:19:08;;;;;;;4.30;2.40;;;;;;;;;;5050356;28;20036;-80
2023/07/09 13:21:36;;;;;;;3.47;2.35;;;;;;;;;;5055972;28;20045;-82
2023/07/09 13:24:05;;;;;;;3.25;2.08;;;;;;;;;;5041832;28;20032;-79
2023/07/09 13:26:31;;;;;;;3.17;2.10;;;;;;;;;;5056071;28;20434;-82
2023/07/09 13:28:57;;;;;;;4.70;2.20;;;;;;;;;;5058178;28;20082;-82
2023/07/09 13:31:29;;;;;;;6.35;2.30;;;;;;;;;;5050244;28;20054;-83
2023/07/09 13:33:57;;;;;;;2.88;2.10;;;;;;;;;;5050315;28;20024;-81
2023/07/09 13:36:23;;;;;;;5.22;2.45;;;;;;;;;;5056462;28;20492;-80
2023/07/09 13:38:50;;;;;;;2.95;2.22;;;;;;;;;;5051477;28;20067;-83
2023/07/09 13:41:17;;;;;;;5.25;2.60;;;;;;;;;;5049796;28;20890;-82
2023/07/09 13:43:45;;;;;;;3.88;2.70;;;;;;;;;;5045138;28;20470;-85
2023/07/09 13:46:11;;;;;;;2.85;2.03;;;;;;;;;;5047553;28;20025;-84
2023/07/09 13:48:38;;;;;;;3.10;2.30;;;;;;;;;;5047656;28;20108;-84
2023/07/09 13:51:11;;;;;;;3.75;2.53;;;;;;;;;;5051178;28;20166;-84
2023/07/09 13:53:37;;;;;;;3.30;2.25;;;;;;;;;;5043512;28;20523;-84
2023/07/09 13:56:03;;;;;;;3.42;2.40;;;;;;;;;;5048936;28;20079;-80
2023/07/09 13:58:29;;;;;;;2.67;2.13;;;;;;;;;;5045862;28;20036;-81
2023/07/09 14:00:59;;;;;;;3.75;2.60;;;;;;;;;;5048175;28;20024;-79
2023/07/09 14:03:27;;;;;;;2.60;2.25;;;;;;;;;;5046404;28;20021;-78
2023/07/09 14:05:53;;;;;;;2.42;2.00;;;;;;;;;;5044504;28;20029;-79
2023/07/09 14:08:21;;;;;;;2.35;1.98;;;;;;;;;;5048199;28;20024;-77
2023/07/09 14:10:49;;;;;;;3.15;2.30;;;;;;;;;;5047038;28;20395;-78
2023/07/09 14:13:16;;;;;;;4.00;2.33;;;;;;;;;;5048787;28;20032;-79
2023/07/09 14:15:42;;;;;;;3.33;2.50;;;;;;;;;;5045796;28;20052;-77
2023/07/09 14:18:12;;;;;;;3.28;2.47;;;;;;;;;;5048398;28;20107;-80
2023/07/09 14:20:37;;;;;;;2.88;2.38;;;;;;;;;;5047247;28;20053;-80
2023/07/09 14:23:03;;;;;;;2.63;2.00;;;;;;;;;;5047177;28;20024;-80
2023/07/09 14:25:29;;;;;;;3.00;2.20;;;;;;;;;;5047273;28;20061;-80
2023/07/09 14:27:55;;;;;;;4.30;2.80;;;;;;;;;;5049181;28;20512;-81
2023/07/09 14:30:23;;;;;;;2.72;2.25;;;;;;;;;;5043715;28;20690;-80
2023/07/09 14:32:49;;;;;;;3.13;2.40;;;;;;;;;;5046024;28;20033;-80
2023/07/09 14:35:17;;;;;;;7.18;2.83;;;;;;;;;;5047526;28;20029;-82
2023/07/09 14:37:44;;;;;;;3.65;2.42;;;;;;;;;;5047080;28;20037;-79
2023/07/09 14:40:10;;;;;;;4.13;2.60;;;;;;;;;;5044932;28;20028;-79
2023/07/09 14:42:37;;;;;;;3.17;2.33;;;;;;;;;;5044467;28;20143;-85
2023/07/09 14:45:04;;;;;;;2.33;2.13;;;;;;;;;;5039865;28;20116;-85
2023/07/09 14:47:30;;;;;;;3.50;2.28;;;;;;;;;;5049057;28;20033;-81
2023/07/09 14:49:56;;;;;;;5.20;2.25;;;;;;;;;;5048556;28;20373;-83